createdAt,value
2023-05-19T00:03:11.730Z,98032.72
2023-05-19T00:07:18.255Z,98031.31
2023-05-19T00:11:20.291Z,98038.31
2023-05-19T00:15:22.585Z,98024.28
2023-05-19T00:19:27.584Z,98032.00
2023-05-19T00:23:30.635Z,98026.81
2023-05-19T00:27:32.180Z,98018.25
2023-05-19T00:31:33.886Z,98017.75
2023-05-19T00:35:35.552Z,98013.03
2023-05-19T00:39:38.454Z,98017.22
2023-05-19T00:43:40.060Z,98002.44
2023-05-19T00:47:41.669Z,98003.56
2023-05-19T00:51:43.279Z,97999.84
2023-05-19T00:55:47.647Z,98002.63
2023-05-19T00:59:49.243Z,98001.78
2023-05-19T01:03:50.992Z,98001.78
2023-05-19T01:07:52.671Z,97994.34
2023-05-19T01:11:55.596Z,98000.97
2023-05-19T01:16:05.523Z,97992.41
2023-05-19T01:20:14.935Z,97996.31
2023-05-19T01:24:41.370Z,97999.91
2023-05-19T01:29:07.576Z,97986.91
2023-05-19T01:33:13.473Z,97992.75
2023-05-19T01:37:16.121Z,97995.28
2023-05-19T01:41:18.884Z,97993.63
2023-05-19T01:45:21.292Z,97996.69
2023-05-19T01:49:24.161Z,97986.53
2023-05-19T01:53:26.032Z,97989.66
2023-05-19T01:57:33.622Z,97982.81
2023-05-19T02:01:48.429Z,97985.31
2023-05-19T02:05:59.241Z,97986.78
2023-05-19T02:10:05.715Z,97985.44
2023-05-19T02:14:21.267Z,97979.38
2023-05-19T02:18:23.441Z,97984.66
2023-05-19T02:22:26.343Z,97978.63
2023-05-19T02:26:28.145Z,97971.75
2023-05-19T02:30:29.988Z,97967.38
2023-05-19T02:34:31.635Z,97970.63
2023-05-19T02:38:34.525Z,97973.16
2023-05-19T02:42:36.057Z,97972.91
2023-05-19T02:46:37.703Z,97972.34
2023-05-19T02:50:39.297Z,97972.66
2023-05-19T02:54:42.305Z,97976.72
2023-05-19T02:58:44.069Z,97958.88
2023-05-19T03:02:45.736Z,97966.34
2023-05-19T03:06:47.327Z,97962.13
2023-05-19T03:10:50.196Z,97959.34
2023-05-19T03:14:51.799Z,97954.91
2023-05-19T03:18:53.369Z,97959.56
2023-05-19T03:22:54.912Z,97959.78
2023-05-19T03:26:57.790Z,97965.53
2023-05-19T03:30:59.350Z,97967.72
2023-05-19T03:35:00.880Z,97978.41
2023-05-19T03:39:02.406Z,97972.06
2023-05-19T03:43:05.306Z,97973.13
2023-05-19T03:47:07.118Z,97970.34
2023-05-19T03:51:14.515Z,97975.94
2023-05-19T03:55:16.052Z,97976.19
2023-05-19T03:59:18.938Z,97981.19
2023-05-19T04:03:20.626Z,97984.78
2023-05-19T04:07:22.372Z,97985.88
2023-05-19T04:11:23.903Z,97985.84
2023-05-19T04:15:26.805Z,97981.41
2023-05-19T04:19:28.383Z,97987.09
2023-05-19T04:23:29.959Z,97985.72
2023-05-19T04:27:31.481Z,97993.50
2023-05-19T04:31:34.619Z,97984.03
2023-05-19T04:35:36.096Z,97976.03
2023-05-19T04:39:37.622Z,97977.94
2023-05-19T04:43:39.207Z,97981.44
2023-05-19T04:47:42.245Z,97977.19
2023-05-19T04:51:43.701Z,97985.06
2023-05-19T04:55:45.229Z,97979.94
2023-05-19T04:59:46.766Z,97984.84
2023-05-19T05:03:49.683Z,97975.97
2023-05-19T05:07:51.303Z,97992.19
2023-05-19T05:11:53.566Z,97988.63
2023-05-19T05:15:55.671Z,97972.00
2023-05-19T05:19:59.313Z,97973.81
2023-05-19T05:24:01.444Z,97969.53
2023-05-19T05:28:03.014Z,97967.16
2023-05-19T05:32:05.266Z,97976.66
2023-05-19T05:36:08.915Z,97972.47
2023-05-19T05:40:11.385Z,97964.81
2023-05-19T05:44:12.999Z,97975.69
2023-05-19T05:48:15.342Z,97969.66
2023-05-19T05:52:20.996Z,97972.69
2023-05-19T05:56:23.080Z,97971.50
2023-05-19T06:00:24.632Z,97961.09
2023-05-19T06:04:26.166Z,97971.78
2023-05-19T06:08:29.160Z,97967.84
2023-05-19T06:12:30.758Z,97956.22
2023-05-19T06:16:32.399Z,97963.59
2023-05-19T06:20:34.176Z,97957.81
2023-05-19T06:24:39.372Z,97956.13
2023-05-19T06:28:41.148Z,97953.06
2023-05-19T06:32:44.546Z,97947.19
2023-05-19T06:36:46.121Z,97942.97
2023-05-19T06:40:49.006Z,97955.69
2023-05-19T06:44:50.983Z,97947.75
2023-05-19T06:48:52.504Z,97966.16
2023-05-19T06:52:54.291Z,97959.28
2023-05-19T06:56:57.166Z,97949.97
2023-05-19T07:00:58.688Z,97957.81
2023-05-19T07:05:00.396Z,97948.53
2023-05-19T07:09:01.923Z,97951.50
2023-05-19T07:13:05.064Z,97950.44
2023-05-19T07:17:06.594Z,97938.34
2023-05-19T07:21:08.149Z,97935.38
2023-05-19T07:25:10.204Z,97945.63
2023-05-19T07:29:13.085Z,97949.81
2023-05-19T07:33:14.659Z,97942.31
2023-05-19T07:37:16.312Z,97922.94
2023-05-19T07:41:17.828Z,97929.38
2023-05-19T07:45:20.780Z,97928.47
2023-05-19T07:49:22.351Z,97926.91
2023-05-19T07:53:23.956Z,97934.06
2023-05-19T07:57:25.518Z,97918.22
2023-05-19T08:01:29.649Z,97913.44
2023-05-19T08:05:31.181Z,97909.69
2023-05-19T08:09:32.786Z,97901.88
2023-05-19T08:13:34.424Z,97907.78
2023-05-19T08:17:37.391Z,97913.66
2023-05-19T08:21:38.812Z,97909.13
2023-05-19T08:25:40.325Z,97916.16
2023-05-19T08:29:41.931Z,97911.09
2023-05-19T08:33:45.073Z,97908.00
2023-05-19T08:37:46.621Z,97905.91
2023-05-19T08:41:48.214Z,97898.53
2023-05-19T08:45:50.139Z,97900.66
2023-05-19T08:49:56.025Z,97889.78
2023-05-19T08:54:04.490Z,97885.41
2023-05-19T08:58:06.318Z,97876.84
2023-05-19T09:02:10.617Z,97878.16
2023-05-19T09:06:13.498Z,97873.84
2023-05-19T09:10:14.892Z,97869.88
2023-05-19T09:14:16.417Z,97867.97
2023-05-19T09:18:17.993Z,97861.63
2023-05-19T09:22:21.012Z,97845.22
2023-05-19T09:26:22.537Z,97854.34
2023-05-19T09:30:24.286Z,97853.53
2023-05-19T09:34:26.169Z,97849.63
2023-05-19T09:38:29.635Z,97860.00
2023-05-19T09:42:37.646Z,97843.41
2023-05-19T09:46:47.477Z,97837.41
2023-05-19T09:50:49.364Z,97838.34
2023-05-19T09:54:53.117Z,97834.59
2023-05-19T09:58:54.726Z,97832.88
2023-05-19T10:02:56.851Z,97818.28
2023-05-19T10:06:59.188Z,97818.72
2023-05-19T10:11:03.080Z,97827.16
2023-05-19T10:15:05.970Z,97818.00
2023-05-19T10:19:07.880Z,97813.06
2023-05-19T10:23:09.735Z,97808.59
2023-05-19T10:27:14.859Z,97816.50
2023-05-19T10:31:21.503Z,97815.88
2023-05-19T10:35:37.029Z,97808.31
2023-05-19T10:39:43.156Z,97807.31
2023-05-19T10:43:59.703Z,97802.25
2023-05-19T10:48:01.403Z,97787.44
2023-05-19T10:52:03.430Z,97791.41
2023-05-19T10:56:05.558Z,97781.34
2023-05-19T11:00:27.742Z,97794.56
2023-05-19T11:04:40.027Z,97791.31
2023-05-19T11:08:41.624Z,97796.38
2023-05-19T11:12:45.538Z,97798.03
2023-05-19T11:16:51.321Z,97792.84
2023-05-19T11:20:56.161Z,97783.97
2023-05-19T11:24:57.999Z,97779.78
2023-05-19T11:29:00.290Z,97789.19
2023-05-19T11:33:03.725Z,97790.00
2023-05-19T11:37:06.340Z,97775.44
2023-05-19T11:41:07.887Z,97775.78
2023-05-19T11:45:10.270Z,97769.75
2023-05-19T11:49:14.884Z,97769.22
2023-05-19T11:53:18.116Z,97759.00
2023-05-19T11:57:20.238Z,97765.50
2023-05-19T12:01:23.826Z,97773.00
2023-05-19T12:05:27.259Z,97763.75
2023-05-19T12:09:28.857Z,97761.75
2023-05-19T12:13:30.436Z,97755.94
2023-05-19T12:17:32.731Z,97753.16
2023-05-19T12:21:36.167Z,97755.47
2023-05-19T12:25:37.943Z,97761.78
2023-05-19T12:29:40.336Z,97766.03
2023-05-19T12:33:42.027Z,97748.13
2023-05-19T12:37:44.956Z,97751.94
2023-05-19T12:41:46.351Z,97751.16
2023-05-19T12:45:48.095Z,97752.69
2023-05-19T12:49:56.750Z,97738.41
2023-05-19T12:54:02.495Z,97732.94
2023-05-19T12:58:06.992Z,97726.63
2023-05-19T13:02:08.861Z,97718.16
2023-05-19T13:06:10.744Z,97713.34
2023-05-19T13:10:13.645Z,97726.00
2023-05-19T13:14:15.053Z,97721.03
2023-05-19T13:18:17.533Z,97736.78
2023-05-19T13:22:19.156Z,97728.78
2023-05-19T13:26:22.037Z,97713.97
2023-05-19T13:30:23.436Z,97729.00
2023-05-19T13:34:24.984Z,97710.06
2023-05-19T13:38:26.572Z,97707.75
2023-05-19T13:42:29.482Z,97719.25
2023-05-19T13:46:44.198Z,97711.13
2023-05-19T13:50:47.424Z,97706.94
2023-05-19T13:54:49.484Z,97704.16
2023-05-19T13:58:52.393Z,97708.78
2023-05-19T14:02:53.867Z,97716.41
2023-05-19T14:06:55.603Z,97717.88
2023-05-19T14:10:57.186Z,97706.53
2023-05-19T14:15:00.924Z,97705.72
2023-05-19T14:19:02.481Z,97696.84
2023-05-19T14:23:04.086Z,97699.00
2023-05-19T14:27:06.066Z,97703.06
2023-05-19T14:31:12.468Z,97701.78
2023-05-19T14:35:14.173Z,97700.13
2023-05-19T14:39:15.797Z,97695.31
2023-05-19T14:43:17.355Z,97691.69
2023-05-19T14:47:20.284Z,97695.09
2023-05-19T14:51:21.727Z,97685.22
2023-05-19T14:55:23.325Z,97676.16
2023-05-19T14:59:25.007Z,97688.91
2023-05-19T15:03:27.935Z,97680.50
2023-05-19T15:07:29.368Z,97694.19
2023-05-19T15:11:30.955Z,97695.22
2023-05-19T15:15:32.542Z,97705.34
2023-05-19T15:19:35.598Z,97706.94
2023-05-19T15:23:37.037Z,97694.34
2023-05-19T15:27:38.627Z,97698.78
2023-05-19T15:31:40.289Z,97698.22
2023-05-19T15:35:43.315Z,97698.56
2023-05-19T15:39:45.964Z,97700.75
2023-05-19T15:43:47.495Z,97688.53
2023-05-19T15:47:49.120Z,97695.66
2023-05-19T15:51:52.040Z,97700.41
2023-05-19T15:55:53.428Z,97697.53
2023-05-19T15:59:54.984Z,97685.97
2023-05-19T16:03:56.898Z,97690.25
2023-05-19T16:07:59.871Z,97695.28
2023-05-19T16:12:01.251Z,97694.28
2023-05-19T16:16:02.949Z,97685.06
2023-05-19T16:20:05.735Z,97684.72
2023-05-19T16:24:08.660Z,97685.88
2023-05-19T16:28:10.048Z,97682.91
2023-05-19T16:32:11.742Z,97685.34
2023-05-19T16:36:13.400Z,97686.59
2023-05-19T16:40:16.606Z,97673.88
2023-05-19T16:44:18.193Z,97674.28
2023-05-19T16:48:19.805Z,97680.84
2023-05-19T16:52:21.419Z,97674.94
2023-05-19T16:56:24.339Z,97667.84
2023-05-19T17:00:25.934Z,97668.22
2023-05-19T17:04:29.451Z,97670.13
2023-05-19T17:08:32.282Z,97664.59
2023-05-19T17:12:35.206Z,97660.16
2023-05-19T17:16:37.036Z,97664.94
2023-05-19T17:20:38.624Z,97660.53
2023-05-19T17:24:40.214Z,97674.47
2023-05-19T17:28:43.119Z,97671.09
2023-05-19T17:32:44.789Z,97676.66
2023-05-19T17:36:46.457Z,97669.06
2023-05-19T17:40:48.007Z,97675.44
2023-05-19T17:44:50.898Z,97677.78
2023-05-19T17:48:52.456Z,97680.44
2023-05-19T17:52:54.522Z,97677.81
2023-05-19T17:56:58.512Z,97677.06
2023-05-19T18:01:01.780Z,97672.63
2023-05-19T18:05:04.310Z,97672.34
2023-05-19T18:09:06.850Z,97671.84
2023-05-19T18:13:10.298Z,97669.41
2023-05-19T18:17:13.275Z,97659.53
2023-05-19T18:21:14.834Z,97660.09
2023-05-19T18:25:16.599Z,97663.53
2023-05-19T18:29:18.142Z,97663.84
2023-05-19T18:33:22.266Z,97665.69
2023-05-19T18:37:26.694Z,97666.50
2023-05-19T18:41:28.404Z,97675.38
2023-05-19T18:45:29.959Z,97668.66
2023-05-19T18:49:33.023Z,97666.03
2023-05-19T18:53:34.441Z,97666.53
2023-05-19T18:57:35.992Z,97670.94
2023-05-19T19:01:37.684Z,97671.44
2023-05-19T19:05:40.736Z,97686.53
2023-05-19T19:09:42.257Z,97675.84
2023-05-19T19:13:43.799Z,97676.63
2023-05-19T19:17:45.359Z,97677.47
2023-05-19T19:21:48.257Z,97695.94
2023-05-19T19:25:50.078Z,97688.09
2023-05-19T19:29:51.665Z,97678.75
2023-05-19T19:33:53.206Z,97690.22
2023-05-19T19:37:56.106Z,97690.06
2023-05-19T19:41:57.689Z,97689.19
2023-05-19T19:45:59.661Z,97686.41
2023-05-19T19:50:01.196Z,97691.50
2023-05-19T19:54:04.331Z,97692.31
2023-05-19T19:58:05.704Z,97694.09
2023-05-19T20:02:07.240Z,97705.38
2023-05-19T20:06:08.842Z,97694.59
2023-05-19T20:10:12.079Z,97693.59
2023-05-19T20:14:13.603Z,97692.44
2023-05-19T20:18:15.312Z,97697.53
2023-05-19T20:22:16.996Z,97686.09
2023-05-19T20:26:19.863Z,97677.44
2023-05-19T20:30:21.488Z,97688.22
2023-05-19T20:34:23.039Z,97683.00
2023-05-19T20:38:24.631Z,97689.53
2023-05-19T20:42:27.536Z,97691.00
2023-05-19T20:46:29.170Z,97693.28
2023-05-19T20:50:30.836Z,97678.25
2023-05-19T20:54:32.514Z,97682.31
2023-05-19T20:58:35.411Z,97684.75
2023-05-19T21:02:37.095Z,97687.03
2023-05-19T21:06:38.693Z,97683.25
2023-05-19T21:10:40.276Z,97683.06
2023-05-19T21:14:43.148Z,97680.63
2023-05-19T21:18:44.718Z,97676.78
2023-05-19T21:22:46.320Z,97678.59
2023-05-19T21:26:47.846Z,97674.19
2023-05-19T21:30:50.750Z,97678.72
2023-05-19T21:34:52.285Z,97681.00
2023-05-19T21:38:53.838Z,97694.06
2023-05-19T21:42:55.352Z,97683.94
2023-05-19T21:46:58.387Z,97681.84
2023-05-19T21:50:59.955Z,97681.84
2023-05-19T21:55:01.470Z,97680.69
2023-05-19T21:59:03.266Z,97676.97
2023-05-19T22:03:06.170Z,97687.44
2023-05-19T22:07:07.732Z,97684.31
2023-05-19T22:11:09.274Z,97677.94
2023-05-19T22:15:11.707Z,97675.16
2023-05-19T22:19:14.684Z,97679.59
2023-05-19T22:23:16.249Z,97675.19
2023-05-19T22:27:18.343Z,97678.34
2023-05-19T22:31:19.867Z,97667.22
2023-05-19T22:35:22.924Z,97665.91
2023-05-19T22:39:24.283Z,97657.88
2023-05-19T22:43:25.793Z,97650.69
2023-05-19T22:47:27.427Z,97643.16
2023-05-19T22:51:30.287Z,97647.91
2023-05-19T22:55:32.023Z,97646.91
2023-05-19T22:59:33.704Z,97652.66
2023-05-19T23:03:35.221Z,97647.25
2023-05-19T23:07:38.095Z,97649.34
2023-05-19T23:11:39.588Z,97645.09
2023-05-19T23:15:41.096Z,97645.91
2023-05-19T23:19:42.597Z,97640.38
2023-05-19T23:23:45.516Z,97636.78
2023-05-19T23:27:47.073Z,97636.28
2023-05-19T23:31:48.800Z,97639.03
2023-05-19T23:35:50.718Z,97638.53
2023-05-19T23:39:53.545Z,97632.97
2023-05-19T23:43:55.429Z,97636.22
2023-05-19T23:47:57.072Z,97633.94
2023-05-19T23:51:58.576Z,97629.75
2023-05-19T23:56:01.818Z,97628.72
